sensor_id;sensor_type;location;lat;lon;timestamp;P1;durP1;ratioP1;P2;durP2;ratioP2
75073;SDS011;63652;51.526;5.080;2023-01-01T00:00:32;13.35;;;3.60;;
75073;SDS011;63652;51.526;5.080;2023-01-01T00:03:00;8.70;;;2.03;;
75073;SDS011;63652;51.526;5.080;2023-01-01T00:05:26;7.05;;;2.25;;
75073;SDS011;63652;51.526;5.080;2023-01-01T00:08:04;9.57;;;2.78;;
75073;SDS011;63652;51.526;5.080;2023-01-01T00:10:30;9.25;;;3.05;;
75073;SDS011;63652;51.526;5.080;2023-01-01T00:12:56;7.22;;;2.13;;
75073;SDS011;63652;51.526;5.080;2023-01-01T00:15:22;9.85;;;4.57;;
75073;SDS011;63652;51.526;5.080;2023-01-01T00:17:48;9.88;;;2.22;;
75073;SDS011;63652;51.526;5.080;2023-01-01T00:20:16;10.65;;;2.28;;
75073;SDS011;63652;51.526;5.080;2023-01-01T00:22:44;6.68;;;1.77;;
75073;SDS011;63652;51.526;5.080;2023-01-01T00:25:10;11.85;;;2.35;;
75073;SDS011;63652;51.526;5.080;2023-01-01T00:27:42;7.80;;;3.15;;
75073;SDS011;63652;51.526;5.080;2023-01-01T00:30:11;9.32;;;3.00;;
75073;SDS011;63652;51.526;5.080;2023-01-01T00:32:36;9.43;;;2.50;;
75073;SDS011;63652;51.526;5.080;2023-01-01T00:35:02;11.32;;;2.15;;
75073;SDS011;63652;51.526;5.080;2023-01-01T00:37:28;5.82;;;1.77;;
75073;SDS011;63652;51.526;5.080;2023-01-01T00:39:53;6.30;;;1.75;;
75073;SDS011;63652;51.526;5.080;2023-01-01T00:42:19;8.60;;;1.80;;
75073;SDS011;63652;51.526;5.080;2023-01-01T00:44:44;6.15;;;1.33;;
75073;SDS011;63652;51.526;5.080;2023-01-01T00:47:10;6.63;;;1.85;;
75073;SDS011;63652;51.526;5.080;2023-01-01T00:49:38;7.50;;;2.17;;
75073;SDS011;63652;51.526;5.080;2023-01-01T00:52:07;3.75;;;1.63;;
75073;SDS011;63652;51.526;5.080;2023-01-01T00:54:35;6.78;;;1.70;;
75073;SDS011;63652;51.526;5.080;2023-01-01T00:57:07;6.32;;;1.95;;
75073;SDS011;63652;51.526;5.080;2023-01-01T00:59:33;7.13;;;1.50;;
75073;SDS011;63652;51.526;5.080;2023-01-01T01:01:58;7.63;;;1.85;;
75073;SDS011;63652;51.526;5.080;2023-01-01T01:04:24;8.57;;;1.60;;
75073;SDS011;63652;51.526;5.080;2023-01-01T01:06:52;5.35;;;1.88;;
75073;SDS011;63652;51.526;5.080;2023-01-01T01:09:18;9.75;;;1.58;;
75073;SDS011;63652;51.526;5.080;2023-01-01T01:11:48;7.40;;;1.80;;
75073;SDS011;63652;51.526;5.080;2023-01-01T01:14:17;4.55;;;1.20;;
75073;SDS011;63652;51.526;5.080;2023-01-01T01:16:51;2.28;;;1.20;;
75073;SDS011;63652;51.526;5.080;2023-01-01T01:19:17;11.10;;;1.80;;
75073;SDS011;63652;51.526;5.080;2023-01-01T01:21:48;5.03;;;1.70;;
75073;SDS011;63652;51.526;5.080;2023-01-01T01:24:16;5.60;;;1.73;;
75073;SDS011;63652;51.526;5.080;2023-01-01T01:26:54;6.50;;;1.38;;
75073;SDS011;63652;51.526;5.080;2023-01-01T01:29:22;4.65;;;1.50;;
75073;SDS011;63652;51.526;5.080;2023-01-01T01:31:51;6.07;;;1.73;;
75073;SDS011;63652;51.526;5.080;2023-01-01T01:34:16;11.07;;;2.10;;
75073;SDS011;63652;51.526;5.080;2023-01-01T01:36:44;7.22;;;2.00;;
75073;SDS011;63652;51.526;5.080;2023-01-01T01:39:13;3.25;;;1.42;;
75073;SDS011;63652;51.526;5.080;2023-01-01T01:41:42;5.78;;;1.25;;
75073;SDS011;63652;51.526;5.080;2023-01-01T01:50:24;3.92;;;1.25;;
75073;SDS011;63652;51.526;5.080;2023-01-01T01:53:02;3.80;;;1.38;;
75073;SDS011;63652;51.526;5.080;2023-01-01T01:55:34;11.02;;;2.88;;
75073;SDS011;63652;51.526;5.080;2023-01-01T01:58:01;5.38;;;1.67;;
75073;SDS011;63652;51.526;5.080;2023-01-01T02:00:27;4.60;;;1.40;;
75073;SDS011;63652;51.526;5.080;2023-01-01T02:02:57;4.00;;;1.42;;
75073;SDS011;63652;51.526;5.080;2023-01-01T02:05:28;4.20;;;1.13;;
75073;SDS011;63652;51.526;5.080;2023-01-01T02:07:54;5.68;;;1.73;;
75073;SDS011;63652;51.526;5.080;2023-01-01T02:10:23;5.10;;;1.65;;
75073;SDS011;63652;51.526;5.080;2023-01-01T02:13:10;3.67;;;1.30;;
75073;SDS011;63652;51.526;5.080;2023-01-01T02:15:48;4.32;;;1.33;;
75073;SDS011;63652;51.526;5.080;2023-01-01T02:18:47;6.93;;;1.52;;
75073;SDS011;63652;51.526;5.080;2023-01-01T02:21:16;6.18;;;1.20;;
75073;SDS011;63652;51.526;5.080;2023-01-01T02:24:03;4.97;;;1.23;;
75073;SDS011;63652;51.526;5.080;2023-01-01T02:26:57;6.35;;;1.67;;
75073;SDS011;63652;51.526;5.080;2023-01-01T02:29:41;5.80;;;1.73;;
75073;SDS011;63652;51.526;5.080;2023-01-01T02:32:14;5.00;;;1.30;;
75073;SDS011;63652;51.526;5.080;2023-01-01T02:35:06;6.85;;;1.83;;
75073;SDS011;63652;51.526;5.080;2023-01-01T02:37:58;4.00;;;1.02;;
75073;SDS011;63652;51.526;5.080;2023-01-01T02:42:55;7.35;;;1.88;;
75073;SDS011;63652;51.526;5.080;2023-01-01T02:45:28;7.43;;;1.50;;
75073;SDS011;63652;51.526;5.080;2023-01-01T02:48:06;3.35;;;1.00;;
75073;SDS011;63652;51.526;5.080;2023-01-01T02:59:43;4.35;;;1.33;;
75073;SDS011;63652;51.526;5.080;2023-01-01T03:14:46;4.78;;;1.38;;
75073;SDS011;63652;51.526;5.080;2023-01-01T03:17:31;7.07;;;1.67;;
75073;SDS011;63652;51.526;5.080;2023-01-01T03:20:00;4.45;;;1.20;;
75073;SDS011;63652;51.526;5.080;2023-01-01T03:22:36;3.42;;;1.42;;
75073;SDS011;63652;51.526;5.080;2023-01-01T03:25:13;5.43;;;1.20;;
75073;SDS011;63652;51.526;5.080;2023-01-01T03:27:46;4.90;;;1.13;;
75073;SDS011;63652;51.526;5.080;2023-01-01T03:30:21;4.38;;;1.23;;
75073;SDS011;63652;51.526;5.080;2023-01-01T03:35:48;9.25;;;1.90;;
75073;SDS011;63652;51.526;5.080;2023-01-01T03:46:44;7.82;;;1.33;;
75073;SDS011;63652;51.526;5.080;2023-01-01T03:49:19;6.43;;;1.15;;
75073;SDS011;63652;51.526;5.080;2023-01-01T03:54:17;3.42;;;0.98;;
75073;SDS011;63652;51.526;5.080;2023-01-01T03:56:51;5.93;;;1.42;;
75073;SDS011;63652;51.526;5.080;2023-01-01T03:59:24;4.88;;;1.13;;
75073;SDS011;63652;51.526;5.080;2023-01-01T04:01:56;5.30;;;1.00;;
75073;SDS011;63652;51.526;5.080;2023-01-01T04:04:23;7.88;;;1.40;;
75073;SDS011;63652;51.526;5.080;2023-01-01T04:06:49;4.88;;;1.30;;
75073;SDS011;63652;51.526;5.080;2023-01-01T04:09:15;5.93;;;1.40;;
75073;SDS011;63652;51.526;5.080;2023-01-01T04:11:42;4.40;;;1.20;;
75073;SDS011;63652;51.526;5.080;2023-01-01T04:14:27;5.47;;;1.02;;
75073;SDS011;63652;51.526;5.080;2023-01-01T04:16:54;7.90;;;1.40;;
75073;SDS011;63652;51.526;5.080;2023-01-01T04:19:20;7.03;;;1.15;;
75073;SDS011;63652;51.526;5.080;2023-01-01T04:21:48;9.27;;;2.67;;
75073;SDS011;63652;51.526;5.080;2023-01-01T04:24:14;7.70;;;1.33;;
75073;SDS011;63652;51.526;5.080;2023-01-01T04:26:39;6.15;;;1.02;;
75073;SDS011;63652;51.526;5.080;2023-01-01T04:29:05;7.38;;;1.58;;
75073;SDS011;63652;51.526;5.080;2023-01-01T04:31:32;6.75;;;1.58;;
75073;SDS011;63652;51.526;5.080;2023-01-01T04:33:58;5.18;;;1.15;;
75073;SDS011;63652;51.526;5.080;2023-01-01T04:36:24;5.00;;;1.30;;
75073;SDS011;63652;51.526;5.080;2023-01-01T04:38:49;6.55;;;1.60;;
75073;SDS011;63652;51.526;5.080;2023-01-01T04:41:15;6.43;;;1.23;;
75073;SDS011;63652;51.526;5.080;2023-01-01T04:43:40;6.15;;;1.38;;
75073;SDS011;63652;51.526;5.080;2023-01-01T04:46:08;6.68;;;1.27;;
75073;SDS011;63652;51.526;5.080;2023-01-01T04:48:34;6.30;;;1.30;;
75073;SDS011;63652;51.526;5.080;2023-01-01T04:51:03;6.13;;;1.38;;
75073;SDS011;63652;51.526;5.080;2023-01-01T04:53:29;7.90;;;1.40;;
75073;SDS011;63652;51.526;5.080;2023-01-01T04:56:06;5.88;;;1.63;;
75073;SDS011;63652;51.526;5.080;2023-01-01T04:58:36;6.88;;;1.63;;
75073;SDS011;63652;51.526;5.080;2023-01-01T05:03:31;6.85;;;1.65;;
75073;SDS011;63652;51.526;5.080;2023-01-01T05:06:04;7.70;;;1.23;;
75073;SDS011;63652;51.526;5.080;2023-01-01T05:08:32;4.97;;;1.48;;
75073;SDS011;63652;51.526;5.080;2023-01-01T05:13:35;6.28;;;1.25;;
75073;SDS011;63652;51.526;5.080;2023-01-01T05:16:04;5.20;;;1.15;;
75073;SDS011;63652;51.526;5.080;2023-01-01T05:18:32;4.28;;;1.23;;
75073;SDS011;63652;51.526;5.080;2023-01-01T05:21:03;5.47;;;1.73;;
75073;SDS011;63652;51.526;5.080;2023-01-01T05:23:33;6.85;;;1.33;;
75073;SDS011;63652;51.526;5.080;2023-01-01T05:25:59;4.78;;;0.98;;
75073;SDS011;63652;51.526;5.080;2023-01-01T05:28:25;6.15;;;1.30;;
75073;SDS011;63652;51.526;5.080;2023-01-01T05:30:51;5.25;;;1.10;;
75073;SDS011;63652;51.526;5.080;2023-01-01T05:33:18;7.95;;;2.63;;
75073;SDS011;63652;51.526;5.080;2023-01-01T05:35:44;9.10;;;1.90;;
75073;SDS011;63652;51.526;5.080;2023-01-01T05:38:09;9.20;;;2.22;;
75073;SDS011;63652;51.526;5.080;2023-01-01T05:40:37;11.52;;;2.03;;
75073;SDS011;63652;51.526;5.080;2023-01-01T05:43:04;4.00;;;1.55;;
75073;SDS011;63652;51.526;5.080;2023-01-01T05:45:30;4.05;;;1.10;;
75073;SDS011;63652;51.526;5.080;2023-01-01T05:47:55;6.30;;;1.38;;
75073;SDS011;63652;51.526;5.080;2023-01-01T05:50:21;6.00;;;1.40;;
75073;SDS011;63652;51.526;5.080;2023-01-01T05:52:46;8.52;;;2.10;;
75073;SDS011;63652;51.526;5.080;2023-01-01T05:55:11;4.53;;;1.35;;
75073;SDS011;63652;51.526;5.080;2023-01-01T05:57:37;7.75;;;1.42;;
75073;SDS011;63652;51.526;5.080;2023-01-01T06:00:02;4.47;;;1.05;;
75073;SDS011;63652;51.526;5.080;2023-01-01T06:02:34;3.03;;;0.73;;
75073;SDS011;63652;51.526;5.080;2023-01-01T06:04:59;4.70;;;0.60;;
75073;SDS011;63652;51.526;5.080;2023-01-01T06:07:25;2.30;;;0.88;;
75073;SDS011;63652;51.526;5.080;2023-01-01T06:09:50;3.13;;;0.80;;
75073;SDS011;63652;51.526;5.080;2023-01-01T06:12:15;4.93;;;0.70;;
75073;SDS011;63652;51.526;5.080;2023-01-01T06:14:41;3.45;;;0.70;;
75073;SDS011;63652;51.526;5.080;2023-01-01T06:17:06;5.03;;;0.90;;
75073;SDS011;63652;51.526;5.080;2023-01-01T06:19:32;2.88;;;0.70;;
75073;SDS011;63652;51.526;5.080;2023-01-01T06:21:57;2.75;;;0.95;;
75073;SDS011;63652;51.526;5.080;2023-01-01T06:24:22;6.15;;;1.67;;
75073;SDS011;63652;51.526;5.080;2023-01-01T06:26:48;3.88;;;0.85;;
75073;SDS011;63652;51.526;5.080;2023-01-01T06:29:13;5.07;;;1.30;;
75073;SDS011;63652;51.526;5.080;2023-01-01T06:31:39;3.00;;;0.90;;
75073;SDS011;63652;51.526;5.080;2023-01-01T06:34:04;4.18;;;0.77;;
75073;SDS011;63652;51.526;5.080;2023-01-01T06:36:30;3.38;;;1.05;;
75073;SDS011;63652;51.526;5.080;2023-01-01T06:38:55;7.63;;;1.77;;
75073;SDS011;63652;51.526;5.080;2023-01-01T06:41:23;7.68;;;1.50;;
75073;SDS011;63652;51.526;5.080;2023-01-01T06:43:49;2.33;;;1.25;;
75073;SDS011;63652;51.526;5.080;2023-01-01T06:48:45;2.83;;;0.80;;
75073;SDS011;63652;51.526;5.080;2023-01-01T06:51:15;2.78;;;0.65;;
75073;SDS011;63652;51.526;5.080;2023-01-01T06:53:42;4.05;;;1.00;;
75073;SDS011;63652;51.526;5.080;2023-01-01T06:56:08;4.97;;;0.90;;
75073;SDS011;63652;51.526;5.080;2023-01-01T06:58:33;6.32;;;1.83;;
75073;SDS011;63652;51.526;5.080;2023-01-01T07:01:06;4.30;;;1.23;;
75073;SDS011;63652;51.526;5.080;2023-01-01T07:03:36;6.72;;;0.93;;
75073;SDS011;63652;51.526;5.080;2023-01-01T07:06:02;4.03;;;0.80;;
75073;SDS011;63652;51.526;5.080;2023-01-01T07:08:28;4.57;;;0.85;;
75073;SDS011;63652;51.526;5.080;2023-01-01T07:10:54;6.47;;;1.15;;
75073;SDS011;63652;51.526;5.080;2023-01-01T07:13:21;7.85;;;1.85;;
75073;SDS011;63652;51.526;5.080;2023-01-01T07:15:51;5.78;;;1.00;;
75073;SDS011;63652;51.526;5.080;2023-01-01T07:18:22;8.05;;;1.42;;
75073;SDS011;63652;51.526;5.080;2023-01-01T07:20:57;3.53;;;0.77;;
75073;SDS011;63652;51.526;5.080;2023-01-01T07:23:24;4.65;;;1.13;;
75073;SDS011;63652;51.526;5.080;2023-01-01T07:25:53;4.03;;;1.02;;
75073;SDS011;63652;51.526;5.080;2023-01-01T07:28:19;2.85;;;0.75;;
75073;SDS011;63652;51.526;5.080;2023-01-01T07:30:45;8.65;;;1.20;;
75073;SDS011;63652;51.526;5.080;2023-01-01T07:33:12;5.40;;;0.70;;
75073;SDS011;63652;51.526;5.080;2023-01-01T07:35:39;4.45;;;0.82;;
75073;SDS011;63652;51.526;5.080;2023-01-01T07:38:05;5.50;;;1.77;;
75073;SDS011;63652;51.526;5.080;2023-01-01T07:40:30;3.47;;;0.52;;
75073;SDS011;63652;51.526;5.080;2023-01-01T07:42:56;3.90;;;0.80;;
75073;SDS011;63652;51.526;5.080;2023-01-01T07:45:24;3.55;;;0.93;;
75073;SDS011;63652;51.526;5.080;2023-01-01T07:47:50;4.95;;;0.88;;
75073;SDS011;63652;51.526;5.080;2023-01-01T07:50:17;7.35;;;1.08;;
75073;SDS011;63652;51.526;5.080;2023-01-01T07:52:43;5.15;;;0.70;;
75073;SDS011;63652;51.526;5.080;2023-01-01T07:55:15;4.40;;;0.88;;
75073;SDS011;63652;51.526;5.080;2023-01-01T07:57:42;7.95;;;1.30;;
75073;SDS011;63652;51.526;5.080;2023-01-01T08:00:08;7.05;;;0.93;;
75073;SDS011;63652;51.526;5.080;2023-01-01T08:02:35;4.43;;;0.70;;
75073;SDS011;63652;51.526;5.080;2023-01-01T08:05:03;7.25;;;1.33;;
75073;SDS011;63652;51.526;5.080;2023-01-01T08:07:29;4.57;;;0.70;;
75073;SDS011;63652;51.526;5.080;2023-01-01T08:09:55;4.38;;;1.17;;
75073;SDS011;63652;51.526;5.080;2023-01-01T08:15:53;5.30;;;0.88;;
75073;SDS011;63652;51.526;5.080;2023-01-01T08:22:01;6.07;;;1.13;;
75073;SDS011;63652;51.526;5.080;2023-01-01T08:24:43;2.55;;;0.73;;
75073;SDS011;63652;51.526;5.080;2023-01-01T08:27:55;4.22;;;1.08;;
75073;SDS011;63652;51.526;5.080;2023-01-01T08:30:52;4.28;;;1.33;;
75073;SDS011;63652;51.526;5.080;2023-01-01T08:36:27;6.75;;;1.10;;
75073;SDS011;63652;51.526;5.080;2023-01-01T08:39:02;7.90;;;1.00;;
75073;SDS011;63652;51.526;5.080;2023-01-01T08:42:21;7.85;;;1.45;;
75073;SDS011;63652;51.526;5.080;2023-01-01T08:48:35;3.83;;;1.35;;
75073;SDS011;63652;51.526;5.080;2023-01-01T08:51:10;4.30;;;1.00;;
75073;SDS011;63652;51.526;5.080;2023-01-01T09:14:16;7.05;;;1.50;;
75073;SDS011;63652;51.526;5.080;2023-01-01T09:17:08;9.82;;;2.53;;
75073;SDS011;63652;51.526;5.080;2023-01-01T09:19:53;7.32;;;1.30;;
75073;SDS011;63652;51.526;5.080;2023-01-01T09:22:38;4.00;;;0.98;;
75073;SDS011;63652;51.526;5.080;2023-01-01T09:25:20;5.18;;;1.55;;
75073;SDS011;63652;51.526;5.080;2023-01-01T09:28:00;7.40;;;1.40;;
75073;SDS011;63652;51.526;5.080;2023-01-01T09:30:32;9.15;;;2.20;;
75073;SDS011;63652;51.526;5.080;2023-01-01T09:33:10;5.50;;;1.20;;
75073;SDS011;63652;51.526;5.080;2023-01-01T09:36:09;6.60;;;1.70;;
75073;SDS011;63652;51.526;5.080;2023-01-01T09:53:18;10.23;;;2.65;;
75073;SDS011;63652;51.526;5.080;2023-01-01T09:56:00;5.88;;;2.35;;
75073;SDS011;63652;51.526;5.080;2023-01-01T10:20:23;8.75;;;4.00;;
75073;SDS011;63652;51.526;5.080;2023-01-01T10:22:52;7.97;;;2.30;;
75073;SDS011;63652;51.526;5.080;2023-01-01T10:33:54;6.47;;;2.55;;
75073;SDS011;63652;51.526;5.080;2023-01-01T10:36:31;9.48;;;2.95;;
75073;SDS011;63652;51.526;5.080;2023-01-01T10:39:16;8.98;;;2.45;;
75073;SDS011;63652;51.526;5.080;2023-01-01T10:41:50;5.88;;;2.80;;
75073;SDS011;63652;51.526;5.080;2023-01-01T10:44:50;8.38;;;3.13;;
75073;SDS011;63652;51.526;5.080;2023-01-01T11:08:16;9.77;;;2.25;;
75073;SDS011;63652;51.526;5.080;2023-01-01T11:10:56;6.95;;;1.70;;
75073;SDS011;63652;51.526;5.080;2023-01-01T11:13:23;16.75;;;2.65;;
75073;SDS011;63652;51.526;5.080;2023-01-01T11:16:02;6.20;;;1.45;;
75073;SDS011;63652;51.526;5.080;2023-01-01T11:25:55;8.85;;;1.98;;
75073;SDS011;63652;51.526;5.080;2023-01-01T11:35:30;5.13;;;1.35;;
75073;SDS011;63652;51.526;5.080;2023-01-01T11:41:58;9.70;;;2.78;;
75073;SDS011;63652;51.526;5.080;2023-01-01T11:44:38;11.30;;;1.98;;
75073;SDS011;63652;51.526;5.080;2023-01-01T12:37:39;6.20;;;1.75;;
75073;SDS011;63652;51.526;5.080;2023-01-01T12:40:38;7.10;;;1.60;;
75073;SDS011;63652;51.526;5.080;2023-01-01T12:43:07;9.73;;;1.75;;
75073;SDS011;63652;51.526;5.080;2023-01-01T12:59:43;6.47;;;1.70;;
75073;SDS011;63652;51.526;5.080;2023-01-01T13:33:31;10.75;;;2.17;;
75073;SDS011;63652;51.526;5.080;2023-01-01T14:17:57;8.98;;;1.65;;
75073;SDS011;63652;51.526;5.080;2023-01-01T14:27:41;9.80;;;1.95;;
75073;SDS011;63652;51.526;5.080;2023-01-01T14:30:57;5.95;;;1.40;;
75073;SDS011;63652;51.526;5.080;2023-01-01T14:37:24;9.63;;;2.03;;
75073;SDS011;63652;51.526;5.080;2023-01-01T14:40:38;8.93;;;2.08;;
75073;SDS011;63652;51.526;5.080;2023-01-01T14:43:43;12.25;;;2.70;;
75073;SDS011;63652;51.526;5.080;2023-01-01T14:52:34;8.02;;;1.60;;
75073;SDS011;63652;51.526;5.080;2023-01-01T15:08:37;8.75;;;1.90;;
75073;SDS011;63652;51.526;5.080;2023-01-01T15:11:21;10.98;;;3.05;;
75073;SDS011;63652;51.526;5.080;2023-01-01T15:14:26;4.30;;;1.50;;
75073;SDS011;63652;51.526;5.080;2023-01-01T15:17:13;9.25;;;1.83;;
75073;SDS011;63652;51.526;5.080;2023-01-01T15:20:05;7.80;;;2.17;;
75073;SDS011;63652;51.526;5.080;2023-01-01T15:23:00;11.30;;;2.58;;
75073;SDS011;63652;51.526;5.080;2023-01-01T15:25:42;12.90;;;2.80;;
75073;SDS011;63652;51.526;5.080;2023-01-01T15:34:42;8.73;;;1.88;;
75073;SDS011;63652;51.526;5.080;2023-01-01T15:37:34;6.40;;;1.98;;
75073;SDS011;63652;51.526;5.080;2023-01-01T15:40:30;17.55;;;4.57;;
75073;SDS011;63652;51.526;5.080;2023-01-01T15:46:47;13.07;;;4.28;;
75073;SDS011;63652;51.526;5.080;2023-01-01T15:49:30;9.13;;;3.05;;
75073;SDS011;63652;51.526;5.080;2023-01-01T15:52:01;10.23;;;3.30;;
75073;SDS011;63652;51.526;5.080;2023-01-01T15:54:28;10.05;;;3.40;;
75073;SDS011;63652;51.526;5.080;2023-01-01T15:56:54;10.73;;;4.55;;
75073;SDS011;63652;51.526;5.080;2023-01-01T15:59:27;16.05;;;5.97;;
75073;SDS011;63652;51.526;5.080;2023-01-01T16:02:01;16.60;;;7.78;;
75073;SDS011;63652;51.526;5.080;2023-01-01T16:04:30;8.50;;;3.13;;
75073;SDS011;63652;51.526;5.080;2023-01-01T16:06:58;15.93;;;8.60;;
75073;SDS011;63652;51.526;5.080;2023-01-01T16:09:24;11.48;;;4.13;;
75073;SDS011;63652;51.526;5.080;2023-01-01T16:11:53;11.55;;;4.00;;
75073;SDS011;63652;51.526;5.080;2023-01-01T16:14:20;8.48;;;3.65;;
75073;SDS011;63652;51.526;5.080;2023-01-01T16:16:49;15.30;;;4.70;;
75073;SDS011;63652;51.526;5.080;2023-01-01T16:19:17;11.48;;;5.82;;
75073;SDS011;63652;51.526;5.080;2023-01-01T16:21:43;11.82;;;4.10;;
75073;SDS011;63652;51.526;5.080;2023-01-01T16:24:15;15.63;;;5.55;;
75073;SDS011;63652;51.526;5.080;2023-01-01T16:26:42;9.60;;;4.20;;
75073;SDS011;63652;51.526;5.080;2023-01-01T16:29:10;15.70;;;7.55;;
75073;SDS011;63652;51.526;5.080;2023-01-01T16:31:37;15.00;;;6.07;;
75073;SDS011;63652;51.526;5.080;2023-01-01T16:34:05;14.82;;;6.45;;
75073;SDS011;63652;51.526;5.080;2023-01-01T16:36:31;14.95;;;5.63;;
75073;SDS011;63652;51.526;5.080;2023-01-01T16:38:57;15.38;;;4.72;;
75073;SDS011;63652;51.526;5.080;2023-01-01T16:41:23;14.90;;;4.40;;
75073;SDS011;63652;51.526;5.080;2023-01-01T16:43:51;13.43;;;3.70;;
75073;SDS011;63652;51.526;5.080;2023-01-01T16:46:20;9.98;;;3.42;;
75073;SDS011;63652;51.526;5.080;2023-01-01T16:48:45;13.13;;;4.80;;
75073;SDS011;63652;51.526;5.080;2023-01-01T16:51:24;8.45;;;3.53;;
75073;SDS011;63652;51.526;5.080;2023-01-01T16:53:55;18.05;;;7.75;;
75073;SDS011;63652;51.526;5.080;2023-01-01T16:56:21;14.07;;;6.20;;
75073;SDS011;63652;51.526;5.080;2023-01-01T16:58:47;19.95;;;7.97;;
75073;SDS011;63652;51.526;5.080;2023-01-01T17:01:12;13.40;;;4.85;;
75073;SDS011;63652;51.526;5.080;2023-01-01T17:03:38;31.90;;;19.63;;
75073;SDS011;63652;51.526;5.080;2023-01-01T17:06:04;24.13;;;12.05;;
75073;SDS011;63652;51.526;5.080;2023-01-01T17:08:31;18.02;;;10.45;;
75073;SDS011;63652;51.526;5.080;2023-01-01T17:11:00;16.25;;;8.65;;
75073;SDS011;63652;51.526;5.080;2023-01-01T17:13:31;13.68;;;5.82;;
75073;SDS011;63652;51.526;5.080;2023-01-01T17:16:00;14.18;;;8.30;;
75073;SDS011;63652;51.526;5.080;2023-01-01T17:18:26;17.83;;;10.85;;
75073;SDS011;63652;51.526;5.080;2023-01-01T17:20:51;12.55;;;6.30;;
75073;SDS011;63652;51.526;5.080;2023-01-01T17:23:18;13.85;;;6.72;;
75073;SDS011;63652;51.526;5.080;2023-01-01T17:25:43;10.95;;;3.30;;
75073;SDS011;63652;51.526;5.080;2023-01-01T17:28:09;15.18;;;5.13;;
75073;SDS011;63652;51.526;5.080;2023-01-01T17:30:34;7.90;;;3.67;;
75073;SDS011;63652;51.526;5.080;2023-01-01T17:33:00;11.48;;;4.30;;
75073;SDS011;63652;51.526;5.080;2023-01-01T17:35:25;9.20;;;2.78;;
75073;SDS011;63652;51.526;5.080;2023-01-01T17:37:51;13.27;;;2.95;;
75073;SDS011;63652;51.526;5.080;2023-01-01T17:40:16;16.50;;;3.30;;
75073;SDS011;63652;51.526;5.080;2023-01-01T17:42:41;10.07;;;2.63;;
75073;SDS011;63652;51.526;5.080;2023-01-01T17:45:07;10.30;;;2.92;;
75073;SDS011;63652;51.526;5.080;2023-01-01T17:47:37;13.00;;;6.65;;
75073;SDS011;63652;51.526;5.080;2023-01-01T17:50:02;14.68;;;6.95;;
75073;SDS011;63652;51.526;5.080;2023-01-01T17:52:30;9.48;;;3.53;;
75073;SDS011;63652;51.526;5.080;2023-01-01T17:54:56;9.57;;;2.95;;
75073;SDS011;63652;51.526;5.080;2023-01-01T17:57:21;9.73;;;4.15;;
75073;SDS011;63652;51.526;5.080;2023-01-01T17:59:47;9.85;;;3.08;;
75073;SDS011;63652;51.526;5.080;2023-01-01T18:02:12;11.07;;;4.25;;
75073;SDS011;63652;51.526;5.080;2023-01-01T18:04:38;12.98;;;5.75;;
75073;SDS011;63652;51.526;5.080;2023-01-01T18:07:04;35.55;;;18.50;;
75073;SDS011;63652;51.526;5.080;2023-01-01T18:09:30;28.33;;;14.40;;
75073;SDS011;63652;51.526;5.080;2023-01-01T18:11:55;25.70;;;12.60;;
75073;SDS011;63652;51.526;5.080;2023-01-01T18:14:21;30.95;;;17.70;;
75073;SDS011;63652;51.526;5.080;2023-01-01T18:16:46;24.45;;;13.15;;
75073;SDS011;63652;51.526;5.080;2023-01-01T18:19:12;15.77;;;9.60;;
75073;SDS011;63652;51.526;5.080;2023-01-01T18:21:37;24.05;;;13.00;;
75073;SDS011;63652;51.526;5.080;2023-01-01T18:24:05;23.48;;;11.52;;
75073;SDS011;63652;51.526;5.080;2023-01-01T18:26:33;15.02;;;7.45;;
75073;SDS011;63652;51.526;5.080;2023-01-01T18:29:00;12.35;;;7.07;;
75073;SDS011;63652;51.526;5.080;2023-01-01T18:31:27;17.35;;;10.52;;
75073;SDS011;63652;51.526;5.080;2023-01-01T18:33:53;12.77;;;5.32;;
75073;SDS011;63652;51.526;5.080;2023-01-01T18:36:20;17.73;;;7.30;;
75073;SDS011;63652;51.526;5.080;2023-01-01T18:41:40;18.65;;;8.70;;
75073;SDS011;63652;51.526;5.080;2023-01-01T18:44:19;14.50;;;7.80;;
75073;SDS011;63652;51.526;5.080;2023-01-01T18:46:51;12.07;;;6.75;;
75073;SDS011;63652;51.526;5.080;2023-01-01T18:49:18;11.55;;;4.68;;
75073;SDS011;63652;51.526;5.080;2023-01-01T18:51:46;12.50;;;4.50;;
75073;SDS011;63652;51.526;5.080;2023-01-01T18:54:15;13.02;;;4.00;;
75073;SDS011;63652;51.526;5.080;2023-01-01T18:56:40;15.20;;;5.10;;
75073;SDS011;63652;51.526;5.080;2023-01-01T18:59:18;13.85;;;7.57;;
75073;SDS011;63652;51.526;5.080;2023-01-01T19:01:45;14.07;;;7.53;;
75073;SDS011;63652;51.526;5.080;2023-01-01T19:04:10;27.90;;;15.10;;
75073;SDS011;63652;51.526;5.080;2023-01-01T19:06:36;36.03;;;22.00;;
75073;SDS011;63652;51.526;5.080;2023-01-01T19:11:51;16.80;;;9.35;;
75073;SDS011;63652;51.526;5.080;2023-01-01T19:16:47;27.77;;;14.88;;
75073;SDS011;63652;51.526;5.080;2023-01-01T19:19:15;36.50;;;17.65;;
75073;SDS011;63652;51.526;5.080;2023-01-01T19:21:42;83.70;;;40.67;;
75073;SDS011;63652;51.526;5.080;2023-01-01T19:24:10;48.25;;;24.60;;
75073;SDS011;63652;51.526;5.080;2023-01-01T19:26:42;35.35;;;20.60;;
75073;SDS011;63652;51.526;5.080;2023-01-01T19:31:48;34.88;;;19.88;;
75073;SDS011;63652;51.526;5.080;2023-01-01T19:34:14;75.28;;;37.63;;
75073;SDS011;63652;51.526;5.080;2023-01-01T19:36:40;57.22;;;31.13;;
75073;SDS011;63652;51.526;5.080;2023-01-01T19:39:06;40.35;;;19.50;;
75073;SDS011;63652;51.526;5.080;2023-01-01T19:41:32;20.35;;;11.93;;
75073;SDS011;63652;51.526;5.080;2023-01-01T19:43:57;26.63;;;15.07;;
75073;SDS011;63652;51.526;5.080;2023-01-01T19:46:23;15.40;;;7.72;;
75073;SDS011;63652;51.526;5.080;2023-01-01T19:48:48;24.60;;;14.30;;
75073;SDS011;63652;51.526;5.080;2023-01-01T19:51:14;12.48;;;8.18;;
75073;SDS011;63652;51.526;5.080;2023-01-01T19:53:39;17.92;;;8.90;;
75073;SDS011;63652;51.526;5.080;2023-01-01T19:56:05;21.10;;;10.55;;
75073;SDS011;63652;51.526;5.080;2023-01-01T19:58:30;26.90;;;13.27;;
75073;SDS011;63652;51.526;5.080;2023-01-01T20:00:56;22.08;;;10.98;;
75073;SDS011;63652;51.526;5.080;2023-01-01T20:03:21;18.38;;;8.40;;
75073;SDS011;63652;51.526;5.080;2023-01-01T20:05:48;17.05;;;7.25;;
75073;SDS011;63652;51.526;5.080;2023-01-01T20:08:13;10.45;;;4.28;;
75073;SDS011;63652;51.526;5.080;2023-01-01T20:10:39;10.32;;;4.65;;
75073;SDS011;63652;51.526;5.080;2023-01-01T20:13:04;9.57;;;5.57;;
75073;SDS011;63652;51.526;5.080;2023-01-01T20:15:30;8.73;;;3.53;;
75073;SDS011;63652;51.526;5.080;2023-01-01T20:17:56;7.78;;;2.88;;
75073;SDS011;63652;51.526;5.080;2023-01-01T20:20:21;7.93;;;3.47;;
75073;SDS011;63652;51.526;5.080;2023-01-01T20:22:46;13.02;;;5.05;;
75073;SDS011;63652;51.526;5.080;2023-01-01T20:25:12;14.43;;;6.65;;
75073;SDS011;63652;51.526;5.080;2023-01-01T20:27:37;8.05;;;4.20;;
75073;SDS011;63652;51.526;5.080;2023-01-01T20:30:22;7.53;;;3.83;;
75073;SDS011;63652;51.526;5.080;2023-01-01T20:32:48;11.15;;;5.28;;
75073;SDS011;63652;51.526;5.080;2023-01-01T20:35:13;19.25;;;8.98;;
75073;SDS011;63652;51.526;5.080;2023-01-01T20:37:39;11.40;;;5.30;;
75073;SDS011;63652;51.526;5.080;2023-01-01T20:40:05;11.38;;;6.80;;
75073;SDS011;63652;51.526;5.080;2023-01-01T20:42:32;17.85;;;8.50;;
75073;SDS011;63652;51.526;5.080;2023-01-01T20:44:58;25.90;;;12.75;;
75073;SDS011;63652;51.526;5.080;2023-01-01T20:47:23;18.33;;;10.55;;
75073;SDS011;63652;51.526;5.080;2023-01-01T20:49:49;14.57;;;8.05;;
75073;SDS011;63652;51.526;5.080;2023-01-01T20:52:14;11.88;;;5.75;;
75073;SDS011;63652;51.526;5.080;2023-01-01T20:54:40;13.07;;;4.32;;
75073;SDS011;63652;51.526;5.080;2023-01-01T20:57:05;14.95;;;9.50;;
75073;SDS011;63652;51.526;5.080;2023-01-01T20:59:30;16.35;;;12.10;;
75073;SDS011;63652;51.526;5.080;2023-01-01T21:01:56;16.55;;;9.88;;